Terminal Aerodrome Forecast
Issued by NWS

Home | Current Version | Previous Version | Text Only | Print | Product List | Glossary On
Versions: 1 2 3 4 5 6 7 8 9 10 11 12 13 14 15 16
000
FTUS44 KLZK 271136
TAFHOT
TAF
KHOT 271136Z 2712/2812 00000KT P6SM VCSH FEW030 SCT100 SCT250
     FM271500 11005KT P6SM SCT040 SCT250
     FM271800 13007KT P6SM SCT050 SCT250=

USA.gov is the U.S. government's official web portal to all federal, state and local government web resources and services.